createdAt,value
2024-01-06T00:01:14.893Z,10.32
2024-01-06T00:03:41.592Z,10.43
2024-01-06T00:06:08.352Z,9.57
2024-01-06T00:08:34.977Z,9.95
2024-01-06T00:11:03.996Z,9.07
2024-01-06T00:13:30.923Z,11.60
2024-01-06T00:15:57.848Z,9.68
2024-01-06T00:18:24.578Z,11.18
2024-01-06T00:20:51.522Z,10.50
2024-01-06T00:23:18.171Z,10.38
2024-01-06T00:25:44.699Z,10.10
2024-01-06T00:28:11.281Z,10.52
2024-01-06T00:30:37.994Z,11.75
2024-01-06T00:33:04.985Z,11.70
2024-01-06T00:35:31.603Z,10.80
2024-01-06T00:37:59.334Z,10.77
2024-01-06T00:40:25.937Z,10.63
2024-01-06T00:42:52.550Z,11.27
2024-01-06T00:45:19.651Z,9.95
2024-01-06T00:47:46.587Z,10.95
2024-01-06T00:50:14.077Z,13.02
2024-01-06T00:52:40.613Z,11.93
2024-01-06T00:55:07.390Z,11.43
2024-01-06T00:57:34.111Z,11.85
2024-01-06T01:00:00.789Z,12.18
2024-01-06T01:02:27.504Z,12.40
2024-01-06T01:04:54.577Z,11.43
2024-01-06T01:07:21.294Z,10.57
2024-01-06T01:09:47.928Z,12.45
2024-01-06T01:12:14.588Z,11.75
2024-01-06T01:14:41.219Z,11.63
2024-01-06T01:17:07.817Z,12.68
2024-01-06T01:19:34.526Z,14.00
2024-01-06T01:22:01.694Z,13.30
2024-01-06T01:24:28.456Z,13.95
2024-01-06T01:26:55.046Z,12.25
2024-01-06T01:29:22.568Z,12.77
2024-01-06T01:31:49.392Z,13.70
2024-01-06T01:34:16.242Z,12.55
2024-01-06T01:36:43.053Z,15.18
2024-01-06T01:39:09.828Z,10.82
2024-01-06T01:41:36.477Z,16.05
2024-01-06T01:44:03.617Z,15.23
2024-01-06T01:46:31.613Z,14.35
2024-01-06T01:49:00.767Z,16.90
2024-01-06T01:51:37.365Z,14.93
2024-01-06T01:54:06.519Z,13.35
2024-01-06T01:56:36.459Z,15.75
2024-01-06T01:59:10.524Z,10.75
2024-01-06T02:01:37.573Z,14.00
2024-01-06T02:04:04.759Z,15.32
2024-01-06T02:06:31.569Z,12.45
2024-01-06T02:08:58.989Z,13.38
2024-01-06T02:11:25.595Z,14.23
2024-01-06T02:13:52.167Z,12.93
2024-01-06T02:16:18.769Z,14.75
2024-01-06T02:18:45.751Z,11.70
2024-01-06T02:21:12.647Z,12.98
2024-01-06T02:23:39.351Z,15.30
2024-01-06T02:26:05.990Z,12.82
2024-01-06T02:28:32.650Z,15.15
2024-01-06T02:30:59.319Z,12.65
2024-01-06T02:33:26.143Z,13.98
2024-01-06T02:35:52.883Z,14.60
2024-01-06T02:38:19.478Z,14.15
2024-01-06T02:40:46.039Z,15.27
2024-01-06T02:43:12.729Z,14.23
2024-01-06T02:45:39.289Z,11.73
2024-01-06T02:48:06.273Z,15.20
2024-01-06T02:50:32.885Z,16.27
2024-01-06T02:52:59.440Z,13.85
2024-01-06T02:55:26.016Z,13.07
2024-01-06T02:57:52.654Z,16.63
2024-01-06T03:00:19.467Z,12.20
2024-01-06T03:02:46.093Z,12.15
2024-01-06T03:05:12.942Z,13.80
2024-01-06T03:07:39.567Z,14.38
2024-01-06T03:10:06.514Z,16.15
2024-01-06T03:12:33.203Z,15.20
2024-01-06T03:14:59.874Z,15.05
2024-01-06T03:17:26.591Z,7.40
2024-01-06T03:19:53.186Z,14.27
2024-01-06T03:22:19.816Z,12.05
2024-01-06T03:24:46.566Z,11.98
2024-01-06T03:27:14.058Z,9.85
2024-01-06T03:29:40.959Z,10.65
2024-01-06T03:32:07.946Z,10.38
2024-01-06T03:34:34.722Z,10.10
2024-01-06T03:37:01.372Z,9.00
2024-01-06T03:39:27.936Z,11.10
2024-01-06T03:41:54.915Z,8.82
2024-01-06T03:44:21.533Z,7.28
2024-01-06T03:46:48.076Z,8.02
2024-01-06T03:49:14.711Z,11.07
2024-01-06T03:51:41.510Z,9.80
2024-01-06T03:54:08.213Z,10.30
2024-01-06T03:56:34.782Z,9.70
2024-01-06T03:59:01.323Z,10.50
2024-01-06T04:01:29.391Z,9.68
2024-01-06T04:03:56.132Z,8.68
2024-01-06T04:06:22.856Z,10.00
2024-01-06T04:08:49.521Z,9.77
2024-01-06T04:11:16.137Z,11.60
2024-01-06T04:13:42.674Z,11.65
2024-01-06T04:16:09.255Z,12.20
2024-01-06T04:18:35.904Z,9.05
2024-01-06T04:21:02.672Z,10.00
2024-01-06T04:23:29.227Z,8.70
2024-01-06T04:25:55.762Z,11.45
2024-01-06T04:28:22.474Z,8.25
2024-01-06T04:30:49.738Z,12.35
2024-01-06T04:33:16.537Z,8.32
2024-01-06T04:35:43.244Z,8.95
2024-01-06T04:38:10.299Z,8.75
2024-01-06T04:40:37.069Z,7.57
2024-01-06T04:43:04.639Z,8.80
2024-01-06T04:45:31.311Z,9.73
2024-01-06T04:47:57.909Z,9.50
2024-01-06T04:50:24.559Z,9.55
2024-01-06T04:52:51.091Z,11.13
2024-01-06T04:55:17.825Z,11.05
2024-01-06T04:57:44.461Z,9.80
2024-01-06T05:00:11.858Z,10.73
2024-01-06T05:02:38.505Z,10.73
2024-01-06T05:05:05.279Z,9.55
2024-01-06T05:07:31.850Z,10.18
2024-01-06T05:09:58.369Z,9.20
2024-01-06T05:12:24.957Z,9.65
2024-01-06T05:14:51.489Z,9.23
2024-01-06T05:17:18.127Z,10.52
2024-01-06T05:19:44.668Z,9.60
2024-01-06T05:22:11.857Z,10.40
2024-01-06T05:24:38.616Z,8.35
2024-01-06T05:27:05.663Z,9.13
2024-01-06T05:29:32.238Z,10.40
2024-01-06T05:31:59.157Z,6.90
2024-01-06T05:34:25.880Z,9.25
2024-01-06T05:36:52.843Z,7.60
2024-01-06T05:39:19.553Z,9.35
2024-01-06T05:41:46.120Z,8.73
2024-01-06T05:44:12.701Z,10.07
2024-01-06T05:46:39.228Z,10.88
2024-01-06T05:49:05.964Z,9.52
2024-01-06T05:51:32.745Z,9.40
2024-01-06T05:53:59.276Z,9.00
2024-01-06T05:56:26.879Z,9.68
2024-01-06T05:58:54.429Z,12.50
2024-01-06T06:01:23.625Z,10.10
2024-01-06T06:03:51.768Z,10.13
2024-01-06T06:06:19.175Z,13.73
2024-01-06T06:08:46.181Z,9.82
2024-01-06T06:11:12.848Z,11.32
2024-01-06T06:13:41.866Z,11.32
2024-01-06T06:16:10.900Z,14.57
2024-01-06T06:18:37.707Z,10.75
2024-01-06T06:21:05.187Z,10.68
2024-01-06T06:23:32.667Z,10.25
2024-01-06T06:26:00.473Z,13.43
2024-01-06T06:28:27.656Z,11.32
2024-01-06T06:30:54.761Z,11.63
2024-01-06T06:33:21.772Z,11.55
2024-01-06T06:35:48.493Z,11.50
2024-01-06T06:38:15.069Z,10.30
2024-01-06T06:40:41.665Z,10.85
2024-01-06T06:43:09.351Z,8.43
2024-01-06T06:45:36.328Z,11.65
2024-01-06T06:48:03.306Z,10.25
2024-01-06T06:50:30.138Z,9.85
2024-01-06T06:52:56.735Z,11.65
2024-01-06T06:55:23.333Z,10.57
2024-01-06T06:57:50.584Z,10.98
2024-01-06T07:00:18.343Z,11.52
2024-01-06T07:02:45.022Z,11.77
2024-01-06T07:05:11.604Z,11.45
2024-01-06T07:07:38.969Z,11.73
2024-01-06T07:10:06.653Z,10.90
2024-01-06T07:12:33.589Z,11.23
2024-01-06T07:15:00.286Z,11.27
2024-01-06T07:17:26.867Z,12.98
2024-01-06T07:19:55.021Z,12.20
2024-01-06T07:22:21.879Z,11.20
2024-01-06T07:24:48.463Z,12.20
2024-01-06T07:27:16.257Z,12.45
2024-01-06T07:29:43.065Z,11.35
2024-01-06T07:32:09.594Z,13.60
2024-01-06T07:34:36.314Z,11.00
2024-01-06T07:37:03.050Z,12.98
2024-01-06T07:39:29.640Z,10.48
2024-01-06T07:41:56.260Z,9.05
2024-01-06T07:44:25.888Z,11.45
2024-01-06T07:46:53.917Z,10.93
2024-01-06T07:49:20.716Z,9.88
2024-01-06T07:51:47.468Z,11.15
2024-01-06T07:54:14.061Z,11.60
2024-01-06T07:56:40.636Z,11.80
2024-01-06T07:59:07.369Z,13.25
2024-01-06T08:01:34.025Z,13.43
2024-01-06T08:04:01.334Z,14.00
2024-01-06T08:06:28.464Z,11.95
2024-01-06T08:08:56.092Z,15.10
2024-01-06T08:11:22.812Z,8.10
2024-01-06T08:13:49.413Z,11.07
2024-01-06T08:16:15.999Z,19.05
2024-01-06T08:18:42.643Z,15.77
2024-01-06T08:21:09.287Z,14.07
2024-01-06T08:23:35.882Z,15.32
2024-01-06T08:26:02.466Z,18.65
2024-01-06T08:28:29.102Z,18.48
2024-01-06T08:30:55.919Z,15.20
2024-01-06T08:33:22.695Z,17.08
2024-01-06T08:35:49.687Z,20.13
2024-01-06T08:38:16.431Z,15.77
2024-01-06T08:40:43.117Z,17.50
2024-01-06T08:43:10.536Z,17.65
2024-01-06T08:45:37.149Z,12.98
2024-01-06T08:48:04.109Z,15.75
2024-01-06T08:50:30.698Z,15.38
2024-01-06T08:52:57.243Z,18.33
2024-01-06T08:55:23.901Z,16.10
2024-01-06T08:57:50.465Z,15.45
2024-01-06T09:00:18.575Z,18.05
2024-01-06T09:02:45.808Z,21.77
2024-01-06T09:05:12.502Z,20.70
2024-01-06T09:07:39.083Z,12.10
2024-01-06T09:10:05.964Z,16.65
2024-01-06T09:12:32.710Z,16.33
2024-01-06T09:14:59.324Z,14.95
2024-01-06T09:17:25.897Z,15.80
2024-01-06T09:19:55.016Z,14.48
2024-01-06T09:22:21.689Z,17.40
2024-01-06T09:24:48.330Z,15.02
2024-01-06T09:27:16.144Z,13.82
2024-01-06T09:29:42.921Z,13.10
2024-01-06T09:32:09.571Z,20.25
2024-01-06T09:34:40.086Z,19.50
2024-01-06T09:37:07.063Z,19.25
2024-01-06T09:39:33.830Z,17.75
2024-01-06T09:42:00.548Z,11.05
2024-01-06T09:44:27.424Z,17.25
2024-01-06T09:46:58.885Z,17.40
2024-01-06T09:49:29.560Z,18.00
2024-01-06T09:52:00.439Z,16.25
2024-01-06T09:54:31.081Z,18.10
2024-01-06T09:56:57.816Z,17.63
2024-01-06T09:59:24.773Z,13.93
2024-01-06T10:01:51.613Z,14.43
2024-01-06T10:04:21.546Z,14.23
2024-01-06T10:06:50.746Z,16.80
2024-01-06T10:09:17.371Z,17.90
2024-01-06T10:11:44.319Z,17.92
2024-01-06T10:14:11.148Z,10.55
2024-01-06T10:16:37.761Z,17.38
2024-01-06T10:19:05.248Z,16.38
2024-01-06T10:21:33.270Z,16.27
2024-01-06T10:24:01.138Z,20.60
2024-01-06T10:26:28.066Z,17.40
2024-01-06T10:28:54.720Z,15.85
2024-01-06T10:31:21.477Z,11.43
2024-01-06T10:33:49.694Z,17.75
2024-01-06T10:36:17.738Z,15.00
2024-01-06T10:38:46.110Z,15.05
2024-01-06T10:41:15.796Z,13.52
2024-01-06T10:43:44.587Z,13.88
2024-01-06T10:46:12.315Z,11.88
2024-01-06T10:48:44.275Z,13.00
2024-01-06T10:51:14.735Z,14.77
2024-01-06T10:53:42.667Z,15.02
2024-01-06T10:56:11.603Z,15.32
2024-01-06T10:58:43.955Z,13.25
2024-01-06T11:01:11.505Z,14.18
2024-01-06T11:03:39.410Z,12.52
2024-01-06T11:06:08.652Z,11.55
2024-01-06T11:08:44.244Z,10.65
2024-01-06T11:11:10.889Z,9.07
2024-01-06T11:13:39.542Z,13.68
2024-01-06T11:16:07.455Z,13.30
2024-01-06T11:18:36.801Z,12.05
2024-01-06T11:21:13.948Z,7.47
2024-01-06T11:23:41.980Z,10.45
2024-01-06T11:26:08.550Z,15.10
2024-01-06T11:28:48.758Z,15.45
2024-01-06T11:31:15.598Z,13.68
2024-01-06T11:33:50.335Z,16.02
2024-01-06T11:36:17.444Z,11.68
2024-01-06T11:38:47.489Z,14.25
2024-01-06T11:41:50.588Z,15.82
2024-01-06T11:44:22.940Z,12.20
2024-01-06T11:46:53.182Z,20.35
2024-01-06T11:49:22.244Z,17.15
2024-01-06T11:51:48.991Z,19.02
2024-01-06T11:54:15.775Z,21.70
2024-01-06T11:56:42.754Z,20.13
2024-01-06T11:59:09.292Z,17.55
2024-01-06T12:01:39.806Z,18.52
2024-01-06T12:04:07.426Z,18.58
2024-01-06T12:06:35.190Z,18.83
2024-01-06T12:09:08.668Z,19.85
2024-01-06T12:11:35.330Z,20.60
2024-01-06T12:14:02.184Z,19.83
2024-01-06T12:16:28.934Z,17.55
2024-01-06T12:18:56.679Z,18.83
2024-01-06T12:21:26.681Z,15.75
2024-01-06T12:23:53.332Z,19.67
2024-01-06T12:26:20.753Z,18.95
2024-01-06T12:28:49.688Z,20.55
2024-01-06T12:31:16.938Z,18.15
2024-01-06T12:33:43.750Z,21.00
2024-01-06T12:36:21.121Z,21.25
2024-01-06T12:38:53.347Z,8.43
2024-01-06T12:41:19.895Z,17.15
2024-01-06T12:43:46.446Z,23.60
2024-01-06T12:46:13.014Z,13.15
2024-01-06T12:48:39.861Z,17.50
2024-01-06T12:51:06.530Z,17.73
2024-01-06T12:53:33.154Z,18.42
2024-01-06T12:55:59.750Z,18.52
2024-01-06T12:58:26.361Z,15.57
2024-01-06T13:00:53.050Z,14.90
2024-01-06T13:03:19.766Z,15.60
2024-01-06T13:05:46.573Z,11.68
2024-01-06T13:08:13.128Z,15.57
2024-01-06T13:10:39.704Z,10.75
2024-01-06T13:13:06.659Z,14.23
2024-01-06T13:15:33.447Z,13.45
2024-01-06T13:18:00.179Z,12.15
2024-01-06T13:20:26.793Z,11.55
2024-01-06T13:22:53.368Z,11.63
2024-01-06T13:25:21.133Z,8.77
2024-01-06T13:27:47.779Z,10.75
2024-01-06T13:30:18.727Z,12.27
2024-01-06T13:32:45.872Z,12.52
2024-01-06T13:35:13.065Z,13.25
2024-01-06T13:37:40.064Z,7.95
2024-01-06T13:40:08.412Z,10.40
2024-01-06T13:42:36.090Z,14.43
2024-01-06T13:45:04.925Z,11.35
2024-01-06T13:47:31.698Z,9.10
2024-01-06T13:49:59.048Z,15.23
2024-01-06T13:52:25.835Z,10.55
2024-01-06T13:54:53.080Z,9.93
2024-01-06T13:57:19.783Z,7.72
2024-01-06T13:59:46.382Z,11.30
2024-01-06T14:02:12.986Z,11.02
2024-01-06T14:04:40.067Z,13.48
2024-01-06T14:07:06.884Z,11.40
2024-01-06T14:09:33.665Z,11.05
2024-01-06T14:12:00.281Z,11.45
2024-01-06T14:14:27.563Z,12.60
2024-01-06T14:16:54.352Z,10.85
2024-01-06T14:19:20.962Z,11.63
2024-01-06T14:21:47.545Z,13.93
2024-01-06T14:24:14.259Z,15.57
2024-01-06T14:26:43.346Z,11.43
2024-01-06T14:29:10.126Z,12.60
2024-01-06T14:31:36.893Z,15.23
2024-01-06T14:34:04.243Z,12.23
2024-01-06T14:36:30.859Z,13.90
2024-01-06T14:38:57.424Z,10.00
2024-01-06T14:41:24.508Z,11.40
2024-01-06T14:43:51.041Z,16.77
2024-01-06T14:46:17.714Z,13.70
2024-01-06T14:48:44.452Z,12.80
2024-01-06T14:51:11.084Z,16.23
2024-01-06T14:53:37.659Z,15.05
2024-01-06T14:56:04.876Z,16.42
2024-01-06T14:58:31.505Z,20.63
2024-01-06T15:00:58.215Z,16.73
2024-01-06T15:03:24.972Z,19.63
2024-01-06T15:05:51.578Z,18.65
2024-01-06T15:08:18.222Z,17.90
2024-01-06T15:10:44.852Z,15.70
2024-01-06T15:13:11.431Z,17.17
2024-01-06T15:15:38.058Z,20.25
2024-01-06T15:18:04.985Z,14.68
2024-01-06T15:20:31.568Z,19.52
2024-01-06T15:22:58.086Z,19.23
2024-01-06T15:25:24.659Z,15.75
2024-01-06T15:27:51.273Z,16.42
2024-01-06T15:30:19.358Z,15.05
2024-01-06T15:32:46.282Z,16.02
2024-01-06T15:35:13.072Z,17.80
2024-01-06T15:37:39.690Z,14.10
2024-01-06T15:40:07.263Z,15.60
2024-01-06T15:42:34.043Z,16.27
2024-01-06T15:45:00.740Z,25.38
2024-01-06T15:47:27.410Z,27.38
2024-01-06T15:49:54.267Z,23.63
2024-01-06T15:52:22.773Z,24.00
2024-01-06T15:54:53.331Z,22.65
2024-01-06T15:57:20.328Z,24.92
2024-01-06T15:59:46.994Z,26.23
2024-01-06T16:02:13.782Z,23.13
2024-01-06T16:04:40.543Z,25.40
2024-01-06T16:07:07.421Z,21.70
2024-01-06T16:09:34.288Z,23.02
2024-01-06T16:12:00.898Z,19.70
2024-01-06T16:14:28.810Z,19.08
2024-01-06T16:16:55.945Z,19.20
2024-01-06T16:19:22.663Z,15.70
2024-01-06T16:21:57.027Z,17.63
2024-01-06T16:24:31.057Z,16.33
2024-01-06T16:26:57.768Z,13.73
2024-01-06T16:29:24.442Z,13.48
2024-01-06T16:31:51.159Z,15.68
2024-01-06T16:34:18.028Z,11.68
2024-01-06T16:36:44.795Z,12.80
2024-01-06T16:39:11.394Z,13.63
2024-01-06T16:41:38.177Z,13.50
2024-01-06T16:44:04.765Z,11.88
2024-01-06T16:46:31.346Z,13.25
2024-01-06T16:48:58.081Z,14.07
2024-01-06T16:51:24.697Z,14.85
2024-01-06T16:53:53.740Z,15.13
2024-01-06T16:56:20.390Z,15.93
2024-01-06T16:58:46.921Z,15.60
2024-01-06T17:01:15.317Z,15.13
2024-01-06T17:03:42.165Z,14.57
2024-01-06T17:06:11.120Z,16.17
2024-01-06T17:08:39.309Z,14.68
2024-01-06T17:11:06.085Z,14.00
2024-01-06T17:13:32.627Z,14.15
2024-01-06T17:15:59.283Z,12.38
2024-01-06T17:18:26.012Z,10.52
2024-01-06T17:20:52.726Z,12.25
2024-01-06T17:23:19.313Z,14.02
2024-01-06T17:25:45.906Z,13.60
2024-01-06T17:28:12.983Z,15.65
2024-01-06T17:30:48.463Z,15.60
2024-01-06T17:33:15.212Z,15.85
2024-01-06T17:35:41.847Z,15.70
2024-01-06T17:38:08.498Z,13.15
2024-01-06T17:40:35.169Z,12.85
2024-01-06T17:43:01.769Z,14.82
2024-01-06T17:45:28.346Z,13.65
2024-01-06T17:47:55.012Z,16.67
2024-01-06T17:50:21.659Z,14.77
2024-01-06T17:52:50.176Z,14.30
2024-01-06T17:55:16.922Z,10.35
2024-01-06T17:57:44.080Z,14.25
2024-01-06T18:00:13.184Z,15.85
2024-01-06T18:02:40.104Z,20.23
2024-01-06T18:05:07.472Z,17.20
2024-01-06T18:07:34.213Z,16.05
2024-01-06T18:10:01.049Z,15.48
2024-01-06T18:12:27.773Z,16.45
2024-01-06T18:14:54.327Z,17.23
2024-01-06T18:17:21.036Z,16.00
2024-01-06T18:19:47.792Z,14.25
2024-01-06T18:22:14.495Z,15.18
2024-01-06T18:24:42.474Z,13.05
2024-01-06T18:27:09.403Z,14.57
2024-01-06T18:29:39.153Z,14.60
2024-01-06T18:32:10.176Z,14.93
2024-01-06T18:34:38.777Z,15.50
2024-01-06T18:37:08.384Z,15.65
2024-01-06T18:39:34.964Z,17.60
2024-01-06T18:42:01.529Z,16.00
2024-01-06T18:44:28.096Z,17.63
2024-01-06T18:46:54.726Z,17.77
2024-01-06T18:49:21.477Z,18.42
2024-01-06T18:51:48.203Z,20.45
2024-01-06T18:54:22.750Z,16.58
2024-01-06T18:56:53.741Z,14.63
2024-01-06T18:59:20.306Z,14.48
2024-01-06T19:01:47.350Z,16.55
2024-01-06T19:04:13.983Z,17.45
2024-01-06T19:06:40.601Z,18.67
2024-01-06T19:09:08.336Z,19.33
2024-01-06T19:11:35.141Z,19.45
2024-01-06T19:14:01.794Z,18.15
2024-01-06T19:16:34.623Z,16.58
2024-01-06T19:19:14.071Z,21.42
2024-01-06T19:21:46.243Z,20.20
2024-01-06T19:24:19.923Z,20.83
2024-01-06T19:26:53.262Z,21.25
2024-01-06T19:29:19.837Z,18.38
2024-01-06T19:31:46.604Z,21.15
2024-01-06T19:34:13.460Z,18.42
2024-01-06T19:36:40.187Z,21.15
2024-01-06T19:39:06.791Z,22.48
2024-01-06T19:41:33.339Z,19.88
2024-01-06T19:44:02.481Z,19.73
2024-01-06T19:46:30.170Z,16.13
2024-01-06T19:49:00.236Z,25.58
2024-01-06T19:51:28.790Z,21.50
2024-01-06T19:53:55.340Z,23.90
2024-01-06T19:56:21.837Z,25.45
2024-01-06T19:58:48.483Z,24.60
2024-01-06T20:01:15.176Z,23.48
2024-01-06T20:03:41.842Z,23.23
2024-01-06T20:06:08.484Z,22.67
2024-01-06T20:08:35.314Z,12.02
2024-01-06T20:11:02.014Z,19.55
2024-01-06T20:13:29.655Z,23.15
2024-01-06T20:15:57.161Z,26.73
2024-01-06T20:18:31.302Z,23.30
2024-01-06T20:20:58.219Z,25.95
2024-01-06T20:23:25.532Z,24.77
2024-01-06T20:25:52.164Z,24.85
2024-01-06T20:28:18.729Z,25.10
2024-01-06T20:30:45.596Z,20.73
2024-01-06T20:33:14.191Z,23.98
2024-01-06T20:35:40.811Z,24.77
2024-01-06T20:38:07.492Z,21.73
2024-01-06T20:40:34.654Z,24.52
2024-01-06T20:43:01.319Z,21.05
2024-01-06T20:45:28.498Z,25.35
2024-01-06T20:47:55.317Z,22.70
2024-01-06T20:50:22.182Z,24.65
2024-01-06T20:52:48.948Z,28.85
2024-01-06T20:55:15.610Z,21.67
2024-01-06T20:57:42.395Z,23.42
2024-01-06T21:00:09.322Z,26.05
2024-01-06T21:02:36.027Z,25.02
2024-01-06T21:05:05.813Z,21.33
2024-01-06T21:07:35.579Z,28.08
2024-01-06T21:10:05.445Z,18.90
2024-01-06T21:12:33.173Z,20.67
2024-01-06T21:15:01.115Z,22.90
2024-01-06T21:17:27.861Z,25.48
2024-01-06T21:19:54.615Z,21.77
2024-01-06T21:22:21.857Z,21.77
2024-01-06T21:24:48.718Z,22.27
2024-01-06T21:27:15.363Z,19.90
2024-01-06T21:29:42.059Z,22.67
2024-01-06T21:32:08.716Z,22.75
2024-01-06T21:34:35.519Z,25.38
2024-01-06T21:37:02.198Z,20.40
2024-01-06T21:39:28.799Z,19.77
2024-01-06T21:41:55.384Z,22.88
2024-01-06T21:44:24.199Z,21.65
2024-01-06T21:46:54.550Z,18.75
2024-01-06T21:49:21.386Z,14.10
2024-01-06T21:51:54.794Z,22.60
2024-01-06T21:54:21.668Z,19.10
2024-01-06T21:56:48.801Z,21.35
2024-01-06T21:59:15.517Z,26.13
2024-01-06T22:01:45.674Z,19.95
2024-01-06T22:04:13.455Z,20.50
2024-01-06T22:06:40.180Z,23.33
2024-01-06T22:09:11.289Z,16.73
2024-01-06T22:11:40.097Z,21.42
2024-01-06T22:14:06.847Z,20.33
2024-01-06T22:16:33.441Z,21.05
2024-01-06T22:19:00.598Z,19.73
2024-01-06T22:21:27.378Z,20.52
2024-01-06T22:23:55.824Z,17.02
2024-01-06T22:26:22.440Z,16.00
2024-01-06T22:28:49.058Z,20.70
2024-01-06T22:31:17.885Z,19.48
2024-01-06T22:33:44.676Z,21.90
2024-01-06T22:36:15.401Z,20.23
2024-01-06T22:38:48.958Z,19.58
2024-01-06T22:41:21.882Z,17.67
2024-01-06T22:43:48.490Z,16.75
2024-01-06T22:46:15.320Z,16.90
2024-01-06T22:48:42.179Z,19.38
2024-01-06T22:51:10.050Z,17.90
2024-01-06T22:53:36.962Z,18.75
2024-01-06T22:56:04.354Z,20.05
2024-01-06T22:58:31.599Z,22.13
2024-01-06T23:00:59.283Z,16.55
2024-01-06T23:03:26.447Z,16.70
2024-01-06T23:05:53.269Z,18.35
2024-01-06T23:08:21.300Z,17.38
2024-01-06T23:10:48.373Z,22.95
2024-01-06T23:13:15.147Z,19.17
2024-01-06T23:15:42.147Z,18.63
2024-01-06T23:18:08.994Z,18.00
2024-01-06T23:20:35.733Z,15.98
2024-01-06T23:23:02.369Z,18.05
2024-01-06T23:25:29.068Z,18.52
2024-01-06T23:27:55.768Z,16.25
2024-01-06T23:30:23.128Z,16.45
2024-01-06T23:32:49.981Z,14.95
2024-01-06T23:35:16.985Z,17.38
2024-01-06T23:37:44.808Z,18.00
2024-01-06T23:40:12.254Z,14.95
2024-01-06T23:42:39.024Z,18.85
2024-01-06T23:45:06.066Z,15.25
2024-01-06T23:47:32.746Z,18.00
2024-01-06T23:49:59.507Z,17.15
2024-01-06T23:52:27.248Z,19.35
2024-01-06T23:54:53.888Z,14.52
2024-01-06T23:57:20.429Z,13.98
2024-01-06T23:59:47.070Z,13.27
